Time;durP1;ratioP1;P1;durP2;ratioP2;P2;SDS_P1;SDS_P2;PMS_P1;PMS_P2;Temp;Humidity;BMP_temperature;BMP_pressure;BME280_temperature;BME280_humidity;BME280_pressure;Samples;Min_cycle;Max_cycle;Signal;HPM_P1;HPM_P2
2023/06/24 07:02:52;;;;;;;12.70;6.80;;;;;;;25.94;94.18;100960.86;104423;1282;601539;-70
2023/06/24 07:05:22;;;;;;;7.70;5.60;;;;;;;26.13;93.79;100955.80;106964;1253;57525;-73
2023/06/24 07:07:53;;;;;;;10.70;5.70;;;;;;;26.17;93.32;100949.52;106927;1251;59033;-71
2023/06/24 07:10:23;;;;;;;11.60;6.00;;;;;;;26.23;92.99;100938.73;106661;1251;61353;-71
2023/06/24 07:12:57;;;;;;;12.20;5.80;;;;;;;26.41;92.92;100941.42;107157;1253;61130;-73
2023/06/24 07:15:27;;;;;;;9.20;5.80;;;;;;;26.58;90.04;100943.54;106437;1251;417226;-71
2023/06/24 07:17:59;;;;;;;10.50;5.70;;;;;;;26.80;88.93;100941.84;106954;1249;73375;-73
2023/06/24 07:20:28;;;;;;;9.30;6.00;;;;;;;26.92;87.45;100943.01;107000;1247;61468;-72
2023/06/24 07:22:58;;;;;;;9.20;5.30;;;;;;;26.88;85.03;100943.33;106887;1250;60781;-72
2023/06/24 07:25:28;;;;;;;7.30;5.00;;;;;;;26.97;85.61;100944.98;106916;1249;63889;-72
2023/06/24 07:27:57;;;;;;;10.00;5.70;;;;;;;27.10;84.93;100942.79;106927;1251;62188;-70
2023/06/24 07:30:26;;;;;;;8.50;5.60;;;;;;;27.22;86.24;100936.89;106907;1250;59335;-73
2023/06/24 07:32:55;;;;;;;8.20;4.90;;;;;;;27.33;84.37;100937.31;107036;1258;63076;-72
2023/06/24 07:35:24;;;;;;;9.70;5.10;;;;;;;27.36;82.41;100940.97;107062;1248;57946;-75
2023/06/24 07:37:53;;;;;;;7.90;4.80;;;;;;;27.35;81.82;100942.29;106967;1247;58438;-72
2023/06/24 07:40:22;;;;;;;10.90;5.70;;;;;;;27.51;80.28;100934.52;107031;1249;72729;-73
2023/06/24 07:42:51;;;;;;;7.80;5.20;;;;;;;27.69;73.68;100935.34;107032;1246;72623;-74
2023/06/24 07:45:20;;;;;;;10.00;5.50;;;;;;;27.87;71.10;100936.95;107119;1251;70075;-73
2023/06/24 07:47:48;;;;;;;11.40;5.50;;;;;;;28.06;70.06;100936.59;107011;1260;64812;-74
2023/06/24 07:50:17;;;;;;;10.40;4.80;;;;;;;28.18;68.77;100933.79;107040;1260;61749;-84
2023/06/24 07:52:46;;;;;;;10.40;4.60;;;;;;;28.21;68.40;100931.11;106931;1248;59438;-72
2023/06/24 07:55:15;;;;;;;12.00;5.20;;;;;;;28.22;67.80;100928.45;106574;1250;63008;-71
2023/06/24 07:57:46;;;;;;;10.80;4.60;;;;;;;28.14;68.30;100927.83;106575;1249;71509;-71
2023/06/24 08:00:17;;;;;;;12.20;5.20;;;;;;;28.37;68.25;100917.17;106643;1260;69648;-71
2023/06/24 08:02:46;;;;;;;8.10;4.90;;;;;;;28.47;66.80;100913.80;106643;1246;74095;-73
2023/06/24 08:05:18;;;;;;;11.30;5.50;;;;;;;28.41;67.45;100912.71;106785;1257;59013;-72
2023/06/24 08:07:47;;;;;;;9.30;5.80;;;;;;;28.43;66.71;100906.86;106922;1249;57870;-75
2023/06/24 08:10:16;;;;;;;11.30;5.20;;;;;;;28.47;66.41;100901.02;106915;1249;72662;-73
2023/06/24 08:12:45;;;;;;;9.70;5.40;;;;;;;28.60;66.71;100895.80;106989;1247;72038;-74
2023/06/24 08:15:14;;;;;;;11.60;7.60;;;;;;;28.71;66.88;100896.27;106859;1249;70900;-73
2023/06/24 08:17:43;;;;;;;7.20;4.90;;;;;;;28.77;66.47;100891.20;106826;1255;73428;-74
2023/06/24 08:20:12;;;;;;;10.30;4.90;;;;;;;28.91;66.54;100889.27;107057;1248;59009;-74
2023/06/24 08:22:41;;;;;;;7.00;4.40;;;;;;;29.04;66.66;100885.58;106877;1250;60949;-73
2023/06/24 08:25:09;;;;;;;13.10;5.60;;;;;;;29.21;66.80;100883.89;107046;1250;64504;-74
2023/06/24 08:27:38;;;;;;;8.20;5.40;;;;;;;29.26;64.45;100876.22;107168;1246;72583;-74
2023/06/24 08:30:08;;;;;;;8.20;4.90;;;;;;;29.32;62.64;100873.78;107193;1257;59787;-73
2023/06/24 08:32:37;;;;;;;8.60;4.50;;;;;;;29.42;62.50;100880.67;107207;1247;65132;-72
2023/06/24 08:35:08;;;;;;;8.80;5.10;;;;;;;29.40;61.30;100883.52;107186;1247;57407;-74
2023/06/24 08:37:37;;;;;;;9.80;5.10;;;;;;;29.31;62.71;100880.80;107188;1257;58325;-72
2023/06/24 08:40:07;;;;;;;8.20;5.10;;;;;;;29.54;63.15;100880.11;106896;1251;61984;-73
2023/06/24 08:42:36;;;;;;;6.30;4.60;;;;;;;29.70;62.12;100877.34;107208;1248;62905;-74
2023/06/24 08:45:07;;;;;;;7.50;5.10;;;;;;;29.74;61.94;100871.98;107183;1247;60733;-73
2023/06/24 08:47:36;;;;;;;9.40;5.40;;;;;;;29.76;61.11;100869.11;107064;1248;73074;-74
2023/06/24 08:50:16;;;;;;;10.20;5.40;;;;;;;29.58;61.64;100870.16;107175;1247;57639;-73
2023/06/24 08:52:54;;;;;;;11.10;5.00;;;;;;;29.82;61.69;100869.30;107078;1248;59060;-73
2023/06/24 08:55:28;;;;;;;7.70;5.00;;;;;;;30.03;61.26;100870.77;106962;1250;72757;-72
2023/06/24 08:57:57;;;;;;;10.30;5.60;;;;;;;29.88;60.70;100871.98;106792;1248;70764;-72
2023/06/24 09:00:27;;;;;;;8.40;5.20;;;;;;;29.85;60.92;100874.18;106918;1250;59220;-73
2023/06/24 09:02:56;;;;;;;8.40;4.60;;;;;;;29.69;61.42;100874.67;107002;1258;65188;-74
2023/06/24 09:05:25;;;;;;;10.10;5.20;;;;;;;29.96;61.58;100872.86;107010;1251;59138;-72
2023/06/24 09:07:53;;;;;;;12.30;5.60;;;;;;;30.15;61.57;100871.25;106927;1248;62922;-73
2023/06/24 09:10:37;;;;;;;7.30;5.20;;;;;;;30.24;60.48;100868.77;107174;1248;61909;-72
2023/06/24 09:13:07;;;;;;;8.90;5.30;;;;;;;30.16;60.12;100866.80;107144;1254;62470;-73
2023/06/24 09:15:37;;;;;;;9.80;5.30;;;;;;;29.97;60.57;100853.41;107126;1248;69887;-72
2023/06/24 09:18:06;;;;;;;8.60;5.40;;;;;;;30.12;60.40;100843.29;107142;1248;73854;-72
2023/06/24 09:20:39;;;;;;;8.50;5.40;;;;;;;30.33;60.90;100837.87;107219;1248;62710;-72
2023/06/24 09:23:08;;;;;;;8.10;5.10;;;;;;;30.56;60.33;100836.65;107792;1247;57887;-73
2023/06/24 09:25:37;;;;;;;10.40;5.90;;;;;;;30.62;60.29;100838.59;107855;1248;62214;-72
2023/06/24 09:28:06;;;;;;;9.80;5.70;;;;;;;30.27;60.80;100841.36;108032;1248;71403;-73
2023/06/24 09:30:35;;;;;;;8.60;5.80;;;;;;;30.47;61.20;100842.63;107808;1246;59740;-72
2023/06/24 09:33:04;;;;;;;7.70;4.80;;;;;;;30.28;60.81;100836.09;107664;1246;63216;-71
2023/06/24 09:35:36;;;;;;;11.20;5.20;;;;;;;30.40;60.97;100831.96;107651;1248;60527;-72
2023/06/24 09:38:05;;;;;;;9.20;5.70;;;;;;;30.68;60.33;100831.09;107441;1258;57536;-71
2023/06/24 09:40:36;;;;;;;10.10;5.10;;;;;;;31.09;59.70;100834.61;107172;1247;72188;-72
2023/06/24 09:43:05;;;;;;;8.60;5.60;;;;;;;31.42;58.38;100841.08;106845;1246;72817;-71
2023/06/24 09:45:34;;;;;;;10.20;5.30;;;;;;;31.07;57.40;100842.05;106948;1246;62415;-73
2023/06/24 09:48:05;;;;;;;7.10;5.20;;;;;;;30.63;57.55;100847.61;106784;1250;64690;-73
2023/06/24 09:50:34;;;;;;;11.60;6.50;;;;;;;30.80;57.71;100850.83;106976;1248;61288;-73
2023/06/24 09:53:04;;;;;;;11.20;5.80;;;;;;;30.89;57.88;100859.42;106955;1246;58967;-72
2023/06/24 09:55:33;;;;;;;12.30;5.50;;;;;;;31.12;57.05;100863.61;106789;1249;63027;-72
2023/06/24 09:58:04;;;;;;;10.40;5.70;;;;;;;31.20;56.62;100873.90;106852;1246;70703;-73
2023/06/24 10:00:33;;;;;;;9.50;5.40;;;;;;;31.08;56.34;100883.55;106876;1244;71815;-73
2023/06/24 10:03:03;;;;;;;8.50;5.20;;;;;;;31.20;56.27;100886.41;107042;1246;62843;-72
2023/06/24 10:05:32;;;;;;;8.70;5.50;;;;;;;31.55;55.33;100884.05;107094;1247;59141;-72
2023/06/24 10:08:05;;;;;;;9.90;5.40;;;;;;;31.38;56.00;100881.50;106948;1246;61226;-72
2023/06/24 10:10:34;;;;;;;11.40;5.60;;;;;;;31.40;55.86;100876.14;106970;1244;62000;-70
2023/06/24 10:13:04;;;;;;;11.90;6.10;;;;;;;30.96;56.60;100882.30;107014;1246;71241;-71
2023/06/24 10:15:35;;;;;;;9.30;5.90;;;;;;;30.99;57.02;100884.15;106859;1246;60397;-72
2023/06/24 10:18:37;;;;;;;8.60;5.10;;;;;;;31.21;56.90;100888.38;106928;1248;64362;-74
2023/06/24 10:21:08;;;;;;;10.20;5.60;;;;;;;31.59;56.23;100887.75;106829;1249;59120;-73
2023/06/24 10:23:47;;;;;;;9.80;5.50;;;;;;;31.86;55.56;100892.77;106845;1250;60869;-72
2023/06/24 10:26:28;;;;;;;9.90;5.50;;;;;;;32.10;54.75;100885.34;106898;1248;61539;-72
2023/06/24 10:29:06;;;;;;;10.60;5.00;;;;;;;32.51;54.79;100881.83;106881;1248;60920;-72
2023/06/24 10:31:44;;;;;;;7.90;4.90;;;;;;;32.61;53.94;100881.89;106889;1248;59508;-73
2023/06/24 10:34:19;;;;;;;9.60;4.60;;;;;;;32.65;53.93;100885.02;106899;1248;72370;-73
2023/06/24 10:37:02;;;;;;;6.90;4.90;;;;;;;32.47;53.71;100882.48;106903;1251;59064;-72
2023/06/24 10:39:58;;;;;;;9.00;5.30;;;;;;;32.54;52.80;100884.48;106953;1248;58945;-72
2023/06/24 10:42:43;;;;;;;9.60;5.00;;;;;;;33.07;52.53;100880.47;106778;1250;71989;-72
2023/06/24 10:45:13;;;;;;;6.80;5.10;;;;;;;33.46;51.56;100878.23;107008;1248;61554;-71
2023/06/24 10:47:52;;;;;;;7.60;5.10;;;;;;;33.65;49.79;100875.34;106988;1251;60580;-70
2023/06/24 10:50:23;;;;;;;8.40;5.70;;;;;;;34.07;50.26;100875.20;106909;1253;73887;-70
2023/06/24 10:52:55;;;;;;;7.10;5.20;;;;;;;34.21;49.07;100866.81;106865;1248;61441;-73
2023/06/24 10:55:28;;;;;;;8.20;5.40;;;;;;;34.65;49.35;100862.66;106961;1244;60877;-81
2023/06/24 10:58:12;;;;;;;7.30;4.70;;;;;;;34.78;48.46;100851.15;107143;1257;61808;-72
2023/06/24 11:00:46;;;;;;;8.00;6.10;;;;;;;34.80;47.82;100832.59;106953;1247;60989;-72
2023/06/24 11:03:21;;;;;;;10.40;5.40;;;;;;;34.59;47.32;100811.61;106814;1247;61652;-72
2023/06/24 11:05:50;;;;;;;8.90;5.70;;;;;;;34.56;47.87;100808.60;106789;1247;65691;-72
2023/06/24 11:08:20;;;;;;;9.30;5.40;;;;;;;35.50;46.27;100819.16;106798;1247;61338;-70
2023/06/24 11:10:49;;;;;;;7.50;6.00;;;;;;;35.76;45.80;100826.61;106806;1247;60986;-70
2023/06/24 11:13:20;;;;;;;6.60;5.10;;;;;;;35.79;45.29;100826.98;106802;1247;65053;-70
2023/06/24 11:15:49;;;;;;;8.20;5.30;;;;;;;35.75;45.01;100824.45;106858;1253;61433;-71
2023/06/24 11:18:18;;;;;;;7.90;4.80;;;;;;;35.79;44.21;100820.69;106819;1245;70154;-73
2023/06/24 11:20:47;;;;;;;9.70;5.30;;;;;;;35.98;42.90;100818.42;106734;1247;65304;-71
2023/06/24 11:23:16;;;;;;;8.40;5.60;;;;;;;35.38;43.86;100819.29;106796;1247;60886;-73
2023/06/24 11:25:45;;;;;;;6.30;5.50;;;;;;;35.03;45.34;100814.98;106746;1247;60814;-73
2023/06/24 11:28:18;;;;;;;6.30;5.20;;;;;;;35.77;43.55;100823.64;106729;1246;75026;-71
2023/06/24 11:30:51;;;;;;;9.80;5.50;;;;;;;35.96;42.85;100816.98;106667;1246;71903;-71
2023/06/24 11:33:28;;;;;;;8.80;5.40;;;;;;;36.07;43.67;100816.06;106691;1249;67772;-71
2023/06/24 11:35:57;;;;;;;10.40;6.00;;;;;;;36.32;42.91;100816.92;106655;1257;64326;-71
2023/06/24 11:38:31;;;;;;;7.40;4.90;;;;;;;36.38;42.10;100815.66;106769;1254;62729;-70
2023/06/24 11:41:02;;;;;;;8.80;5.40;;;;;;;36.43;41.80;100813.06;106725;1251;60876;-71
2023/06/24 11:43:31;;;;;;;10.60;6.00;;;;;;;36.71;41.43;100810.35;106722;1246;73991;-71
2023/06/24 11:46:00;;;;;;;9.10;5.50;;;;;;;36.67;41.36;100813.90;106791;1247;71724;-73
2023/06/24 11:48:29;;;;;;;9.40;5.70;;;;;;;36.80;41.38;100809.58;106799;1246;61189;-73
2023/06/24 11:50:58;;;;;;;9.80;5.00;;;;;;;37.26;39.89;100803.64;106737;1254;64913;-73
2023/06/24 11:53:41;;;;;;;7.70;5.20;;;;;;;37.69;38.56;100798.73;106685;1247;59182;-72
2023/06/24 11:56:10;;;;;;;8.00;5.30;;;;;;;37.99;38.18;100789.34;106765;1247;61646;-74
2023/06/24 11:58:39;;;;;;;7.90;5.20;;;;;;;38.16;37.78;100780.12;106950;1247;63392;-72
2023/06/24 12:01:08;;;;;;;7.00;4.80;;;;;;;38.62;37.02;100780.30;106860;1248;61467;-74
2023/06/24 12:03:37;;;;;;;11.40;4.90;;;;;;;38.89;36.22;100777.23;106856;1247;59410;-73
2023/06/24 12:06:06;;;;;;;6.80;5.00;;;;;;;39.07;36.08;100778.16;107281;1247;64341;-77
2023/06/24 12:08:35;;;;;;;9.30;5.70;;;;;;;38.37;36.20;100775.60;109307;1247;57633;-73
2023/06/24 12:11:19;;;;;;;7.50;5.10;;;;;;;38.54;36.40;100770.92;109279;1247;57215;-74
2023/06/24 12:13:49;;;;;;;6.10;5.40;;;;;;;38.15;37.30;100776.84;109293;1248;62163;-74
2023/06/24 12:16:17;;;;;;;9.10;6.00;;;;;;;37.45;38.05;100769.86;109246;1247;72308;-74
2023/06/24 12:18:46;;;;;;;7.50;5.30;;;;;;;37.44;38.18;100764.07;109320;1247;60765;-73
2023/06/24 12:21:15;;;;;;;8.70;6.60;;;;;;;37.19;38.87;100764.17;109347;1246;63297;-73
2023/06/24 12:23:44;;;;;;;7.80;6.20;;;;;;;38.43;37.29;100767.09;109186;1246;61294;-73
2023/06/24 12:26:13;;;;;;;9.20;6.10;;;;;;;38.30;36.82;100773.41;109183;1246;57755;-72
2023/06/24 12:28:42;;;;;;;6.20;5.50;;;;;;;37.61;37.06;100771.12;109286;1247;62841;-73
2023/06/24 12:31:11;;;;;;;9.80;6.20;;;;;;;38.12;36.40;100776.23;109344;1246;60949;-73
2023/06/24 12:33:40;;;;;;;9.80;5.80;;;;;;;37.51;37.64;100773.80;109329;1247;60335;-73
2023/06/24 12:36:09;;;;;;;8.30;5.30;;;;;;;37.65;37.74;100776.25;109313;1247;63327;-74
2023/06/24 12:38:38;;;;;;;8.80;6.10;;;;;;;38.29;36.62;100777.70;109305;1244;60994;-73
2023/06/24 12:41:06;;;;;;;6.70;5.00;;;;;;;38.14;36.98;100786.32;109337;1246;61393;-73
2023/06/24 12:43:35;;;;;;;10.00;6.00;;;;;;;38.51;36.68;100787.01;109350;1244;64568;-73
2023/06/24 12:46:04;;;;;;;6.40;5.30;;;;;;;38.90;35.97;100787.90;109200;1247;60843;-73
2023/06/24 12:48:33;;;;;;;8.40;5.50;;;;;;;38.90;36.02;100791.00;109098;1246;60363;-72
2023/06/24 12:51:02;;;;;;;8.30;5.50;;;;;;;37.86;37.28;100783.06;109173;1244;73906;-73
2023/06/24 12:53:30;;;;;;;6.20;5.20;;;;;;;38.32;37.28;100774.41;109167;1247;61194;-75
2023/06/24 12:55:59;;;;;;;11.10;5.70;;;;;;;38.84;36.24;100771.11;109178;1246;57175;-72
2023/06/24 12:58:28;;;;;;;9.60;5.70;;;;;;;39.23;35.24;100767.56;109116;1246;63002;-73
2023/06/24 13:00:57;;;;;;;8.10;5.90;;;;;;;38.69;36.36;100770.04;109317;1245;71640;-73
2023/06/24 13:03:26;;;;;;;8.20;5.70;;;;;;;38.28;37.08;100779.69;109331;1244;70901;-72
2023/06/24 13:05:54;;;;;;;6.90;5.30;;;;;;;37.51;38.08;100772.20;109307;1246;73438;-72
2023/06/24 13:08:23;;;;;;;8.50;5.20;;;;;;;36.47;39.95;100770.54;109299;1247;57715;-73
2023/06/24 13:10:52;;;;;;;8.50;6.00;;;;;;;35.71;41.90;100781.41;109209;1244;57639;-72
2023/06/24 13:13:21;;;;;;;7.30;5.50;;;;;;;35.04;43.50;100786.14;109186;1244;73583;-72
2023/06/24 13:15:49;;;;;;;10.40;6.60;;;;;;;34.83;43.73;100791.46;109184;1246;63005;-71
2023/06/24 13:18:19;;;;;;;8.70;6.10;;;;;;;34.52;44.57;100786.89;109244;1245;70910;-72
2023/06/24 13:20:48;;;;;;;8.10;6.10;;;;;;;34.28;45.86;100794.95;109326;1246;63016;-72
2023/06/24 13:23:18;;;;;;;9.30;6.00;;;;;;;34.14;46.36;100797.45;109316;1247;57730;-73
2023/06/24 13:25:47;;;;;;;8.70;6.40;;;;;;;34.12;46.37;100797.89;109328;1247;61262;-72
2023/06/24 13:28:16;;;;;;;8.70;5.80;;;;;;;33.82;47.59;100791.83;109320;1245;73562;-72
2023/06/24 13:30:44;;;;;;;9.10;5.90;;;;;;;33.92;47.43;100792.04;109218;1245;63228;-72
2023/06/24 13:33:13;;;;;;;9.70;6.00;;;;;;;33.63;48.80;100779.23;109081;1245;60542;-73
2023/06/24 13:35:42;;;;;;;12.90;6.20;;;;;;;33.37;49.88;100775.44;109150;1246;64358;-72
2023/06/24 13:38:12;;;;;;;7.80;5.20;;;;;;;33.28;50.23;100774.12;109114;1246;57647;-72
2023/06/24 13:40:41;;;;;;;8.40;5.80;;;;;;;33.48;49.89;100772.01;109123;1245;61799;-74
2023/06/24 13:43:09;;;;;;;9.70;5.70;;;;;;;33.22;50.14;100762.81;109226;1244;65238;-75
2023/06/24 13:45:38;;;;;;;8.00;5.20;;;;;;;32.93;50.78;100749.14;109163;1245;72837;-72
2023/06/24 13:48:07;;;;;;;8.70;5.40;;;;;;;32.76;51.05;100743.55;109039;1245;59741;-72
2023/06/24 13:50:36;;;;;;;8.20;4.90;;;;;;;32.62;50.73;100742.45;109069;1247;72123;-72
2023/06/24 13:53:05;;;;;;;12.00;5.60;;;;;;;32.37;51.65;100737.21;109116;1247;57733;-71
2023/06/24 13:55:36;;;;;;;8.60;5.40;;;;;;;32.24;52.65;100727.66;109054;1244;57675;-71
2023/06/24 13:58:04;;;;;;;7.60;5.20;;;;;;;32.25;52.97;100722.52;109142;1244;63978;-70
2023/06/24 14:00:33;;;;;;;8.50;5.60;;;;;;;32.16;53.16;100723.02;109202;1244;61972;-72
2023/06/24 14:03:02;;;;;;;7.70;5.00;;;;;;;32.10;53.50;100721.70;108920;1244;61014;-72
2023/06/24 14:05:31;;;;;;;8.80;5.70;;;;;;;32.42;52.49;100714.19;108949;1244;73595;-72
2023/06/24 14:08:00;;;;;;;9.50;5.20;;;;;;;32.51;52.52;100715.56;109131;1246;58540;-72
2023/06/24 14:10:29;;;;;;;11.70;5.30;;;;;;;32.69;52.36;100716.23;109103;1244;61296;-72
2023/06/24 14:12:57;;;;;;;8.40;4.60;;;;;;;32.77;51.85;100715.91;109158;1245;64685;-72
2023/06/24 14:15:26;;;;;;;9.20;4.60;;;;;;;32.73;51.91;100716.84;109179;1246;62034;-72
2023/06/24 14:17:55;;;;;;;7.70;4.50;;;;;;;32.75;51.92;100715.36;109145;1244;60066;-74
2023/06/24 14:20:24;;;;;;;9.70;5.00;;;;;;;32.59;52.51;100709.48;109121;1245;73420;-70
2023/06/24 14:22:53;;;;;;;10.10;5.10;;;;;;;32.73;51.84;100709.70;109135;1247;57144;-70
2023/06/24 14:25:22;;;;;;;7.50;4.60;;;;;;;32.77;51.35;100709.04;109107;1247;57491;-71
2023/06/24 14:27:51;;;;;;;8.90;4.60;;;;;;;32.70;51.25;100706.50;109123;1245;74169;-70
2023/06/24 14:30:19;;;;;;;6.70;4.20;;;;;;;32.58;51.32;100710.82;109069;1244;72276;-71
2023/06/24 14:32:48;;;;;;;9.60;4.60;;;;;;;32.55;50.96;100708.27;109205;1244;69977;-71
2023/06/24 14:35:17;;;;;;;9.80;5.20;;;;;;;32.57;51.16;100707.52;109108;1244;64322;-72
2023/06/24 14:37:46;;;;;;;7.60;5.00;;;;;;;32.56;51.15;100709.41;109226;1247;57643;-71
2023/06/24 14:40:15;;;;;;;9.30;4.90;;;;;;;32.48;50.73;100713.38;109185;1245;60432;-72
2023/06/24 14:42:43;;;;;;;11.30;5.20;;;;;;;32.37;50.68;100711.00;109236;1245;65299;-73
2023/06/24 14:45:13;;;;;;;9.20;4.80;;;;;;;32.12;51.97;100710.98;109294;1244;63228;-72
2023/06/24 14:47:41;;;;;;;8.40;4.70;;;;;;;32.13;51.40;100715.86;109305;1244;70603;-72
2023/06/24 14:50:11;;;;;;;9.00;4.10;;;;;;;32.12;51.53;100719.90;109276;1247;74309;-73
2023/06/24 14:52:39;;;;;;;7.10;4.30;;;;;;;32.11;51.68;100724.81;109297;1244;61717;-72
2023/06/24 14:55:09;;;;;;;9.60;4.20;;;;;;;31.94;52.92;100722.56;109334;1244;57243;-71
2023/06/24 14:57:38;;;;;;;6.40;4.00;;;;;;;32.00;53.10;100720.03;109011;1245;72714;-71
2023/06/24 15:00:08;;;;;;;6.90;3.90;;;;;;;32.08;52.93;100719.38;109206;1246;61304;-71
2023/06/24 15:02:37;;;;;;;9.20;4.30;;;;;;;32.07;53.60;100728.87;109208;1244;60050;-71
2023/06/24 15:05:06;;;;;;;8.30;4.30;;;;;;;32.03;53.86;100735.19;109259;1245;63115;-71
2023/06/24 15:07:37;;;;;;;9.20;4.30;;;;;;;32.07;53.45;100736.11;109284;1245;57177;-71
2023/06/24 15:10:06;;;;;;;6.50;4.30;;;;;;;32.08;53.47;100735.20;109316;1244;57812;-71
2023/06/24 15:12:35;;;;;;;9.10;4.70;;;;;;;32.00;53.49;100733.98;109308;1244;62682;-71
2023/06/24 15:15:05;;;;;;;10.40;4.80;;;;;;;32.18;52.57;100737.53;109106;1247;61762;-71
2023/06/24 15:17:34;;;;;;;9.30;4.50;;;;;;;32.34;51.97;100739.83;109164;1244;70789;-71
2023/06/24 15:20:04;;;;;;;7.30;4.20;;;;;;;32.32;52.04;100739.12;109111;1245;74266;-71
2023/06/24 15:22:33;;;;;;;9.50;4.50;;;;;;;32.09;53.07;100743.70;109050;1247;62211;-71
2023/06/24 15:25:03;;;;;;;7.80;3.50;;;;;;;32.22;52.55;100736.02;108989;1245;57161;-68
2023/06/24 15:27:33;;;;;;;9.70;4.60;;;;;;;32.18;52.77;100737.16;109054;1244;62991;-70
2023/06/24 15:30:04;;;;;;;12.20;4.40;;;;;;;31.94;54.21;100740.64;108937;1244;71067;-71
2023/06/24 15:32:33;;;;;;;8.80;3.90;;;;;;;31.93;53.93;100738.14;108942;1244;61111;-70
2023/06/24 15:35:03;;;;;;;5.80;3.80;;;;;;;31.89;53.99;100742.16;109083;1244;63276;-70
2023/06/24 15:37:32;;;;;;;5.40;3.50;;;;;;;31.89;53.79;100734.55;109095;1247;57274;-70
2023/06/24 15:40:01;;;;;;;6.90;3.30;;;;;;;31.85;53.61;100740.48;109089;1246;58157;-70
2023/06/24 15:42:30;;;;;;;6.20;3.60;;;;;;;31.84;53.72;100741.81;109022;1247;63015;-71
2023/06/24 15:44:59;;;;;;;6.70;3.80;;;;;;;31.79;53.95;100743.55;108927;1245;61420;-70
2023/06/24 15:47:28;;;;;;;6.70;3.50;;;;;;;31.74;54.50;100740.32;109066;1246;70529;-70
2023/06/24 15:49:57;;;;;;;7.80;4.00;;;;;;;31.68;54.59;100740.73;109032;1245;63440;-70
2023/06/24 15:52:26;;;;;;;9.20;4.40;;;;;;;31.52;54.98;100739.63;109032;1247;57226;-72
2023/06/24 15:54:55;;;;;;;7.80;3.90;;;;;;;31.56;54.29;100733.82;109010;1249;58757;-69
2023/06/24 15:57:24;;;;;;;10.20;3.80;;;;;;;31.48;53.42;100735.65;109098;1247;62253;-71
2023/06/24 15:59:53;;;;;;;6.30;3.20;;;;;;;31.34;53.05;100735.77;109019;1249;62184;-71
2023/06/24 16:02:22;;;;;;;6.50;3.90;;;;;;;31.16;53.42;100741.41;109141;1246;61750;-70
2023/06/24 16:04:51;;;;;;;6.50;3.10;;;;;;;31.03;53.66;100740.94;109028;1244;73560;-70
2023/06/24 16:07:19;;;;;;;4.50;3.20;;;;;;;31.05;53.19;100746.91;109061;1247;57653;-70
2023/06/24 16:09:48;;;;;;;5.90;3.90;;;;;;;30.97;53.02;100748.97;109005;1244;61767;-70
2023/06/24 16:12:18;;;;;;;9.80;3.80;;;;;;;30.90;53.40;100747.39;109135;1244;63064;-70
2023/06/24 16:14:47;;;;;;;9.30;3.60;;;;;;;30.77;53.79;100746.15;109129;1246;72170;-70
2023/06/24 16:17:16;;;;;;;7.90;3.60;;;;;;;30.59;54.82;100740.58;109109;1247;60386;-72
2023/06/24 16:19:46;;;;;;;6.60;3.10;;;;;;;30.45;55.55;100735.75;109114;1244;73059;-70
2023/06/24 16:22:16;;;;;;;6.50;3.70;;;;;;;30.45;55.68;100734.73;109130;1247;61855;-69
2023/06/24 16:24:45;;;;;;;5.90;3.40;;;;;;;30.42;55.41;100735.39;109064;1247;57639;-70
2023/06/24 16:27:16;;;;;;;6.70;3.50;;;;;;;30.30;55.99;100738.23;109192;1247;63107;-71
2023/06/24 16:29:47;;;;;;;7.80;3.70;;;;;;;30.25;56.69;100735.77;109175;1246;72733;-71
2023/06/24 16:32:16;;;;;;;6.80;3.40;;;;;;;30.19;56.45;100730.95;109164;1244;70667;-70
2023/06/24 16:34:44;;;;;;;9.40;3.80;;;;;;;30.14;57.20;100736.39;109171;1244;73986;-70
2023/06/24 16:37:13;;;;;;;7.80;3.70;;;;;;;30.03;58.14;100728.03;109076;1247;58010;-73
2023/06/24 16:39:42;;;;;;;8.30;3.80;;;;;;;29.91;59.26;100728.38;109018;1245;59835;-70
2023/06/24 16:42:11;;;;;;;6.60;3.70;;;;;;;29.96;58.75;100728.20;109035;1247;63423;-73
2023/06/24 16:44:40;;;;;;;8.30;3.50;;;;;;;29.98;58.17;100728.85;109112;1244;63239;-71
2023/06/24 16:47:09;;;;;;;8.40;3.50;;;;;;;29.88;59.23;100724.66;109083;1245;59766;-72
2023/06/24 16:49:39;;;;;;;8.50;3.70;;;;;;;29.88;59.50;100721.63;109018;1247;64497;-72
2023/06/24 16:52:09;;;;;;;10.30;3.80;;;;;;;29.84;59.56;100721.55;109029;1247;57614;-72
2023/06/24 16:54:38;;;;;;;7.20;3.70;;;;;;;29.83;59.63;100721.20;109085;1247;57979;-73
2023/06/24 16:57:07;;;;;;;9.60;3.60;;;;;;;29.68;61.17;100721.70;109034;1246;73577;-70
2023/06/24 16:59:36;;;;;;;8.50;3.40;;;;;;;29.62;62.05;100723.27;109080;1244;71574;-75
2023/06/24 17:02:06;;;;;;;8.00;3.50;;;;;;;29.53;62.78;100727.13;108941;1244;70099;-72
2023/06/24 17:04:35;;;;;;;7.60;3.30;;;;;;;29.51;62.80;100734.35;109000;1244;73684;-71
2023/06/24 17:07:04;;;;;;;9.30;3.30;;;;;;;29.56;61.77;100734.52;109109;1247;58076;-72
2023/06/24 17:09:33;;;;;;;10.80;3.50;;;;;;;29.55;61.01;100736.27;109127;1247;57656;-72
2023/06/24 17:12:02;;;;;;;6.30;3.40;;;;;;;29.49;61.01;100740.90;109134;1245;73487;-71
2023/06/24 17:14:31;;;;;;;7.80;4.20;;;;;;;29.51;60.80;100736.22;109113;1245;61872;-71
2023/06/24 17:17:00;;;;;;;6.80;3.60;;;;;;;29.76;60.79;100746.86;109169;1247;59280;-72
2023/06/24 17:19:29;;;;;;;6.40;3.40;;;;;;;30.07;59.99;100748.82;109162;1246;73878;-70
2023/06/24 17:21:57;;;;;;;7.80;3.80;;;;;;;30.33;59.54;100753.59;109271;1247;60636;-71
2023/06/24 17:24:26;;;;;;;11.20;3.90;;;;;;;30.45;59.23;100762.58;109217;1248;57256;-70
2023/06/24 17:26:55;;;;;;;6.00;3.40;;;;;;;30.55;58.81;100764.56;109300;1247;62400;-70
2023/06/24 17:29:24;;;;;;;8.40;3.70;;;;;;;30.66;58.41;100765.89;109305;1244;72159;-72
2023/06/24 17:31:52;;;;;;;7.90;3.90;;;;;;;30.64;58.39;100765.75;109356;1245;61994;-72
2023/06/24 17:34:21;;;;;;;8.80;3.80;;;;;;;30.56;58.17;100763.02;109320;1247;63024;-71
2023/06/24 17:36:50;;;;;;;20.00;6.20;;;;;;;30.39;57.95;100763.67;109323;1246;57729;-72
2023/06/24 17:39:19;;;;;;;15.50;5.90;;;;;;;30.22;57.65;100765.86;109345;1244;61357;-71
2023/06/24 17:41:47;;;;;;;12.60;4.60;;;;;;;30.05;57.84;100768.52;109330;1245;74411;-71
2023/06/24 17:44:16;;;;;;;15.30;6.60;;;;;;;29.96;58.19;100772.73;109305;1246;62390;-70
2023/06/24 17:46:45;;;;;;;15.80;6.10;;;;;;;29.78;59.05;100773.77;109263;1247;60011;-71
2023/06/24 17:49:14;;;;;;;12.50;4.60;;;;;;;29.70;59.77;100771.61;109374;1245;73877;-70
2023/06/24 17:51:42;;;;;;;8.10;4.30;;;;;;;29.54;60.32;100769.73;109280;1247;58828;-70
2023/06/24 17:54:11;;;;;;;13.80;6.20;;;;;;;29.40;61.35;100774.60;109397;1247;57239;-70
2023/06/24 17:56:40;;;;;;;12.90;6.30;;;;;;;29.24;61.99;100780.30;109407;1246;62985;-70
2023/06/24 17:59:09;;;;;;;8.90;5.10;;;;;;;29.07;63.78;100787.68;109368;1244;72163;-70
2023/06/24 18:01:37;;;;;;;12.30;5.40;;;;;;;28.92;63.99;100792.62;109311;1245;62058;-70
2023/06/24 18:04:06;;;;;;;11.70;5.90;;;;;;;28.78;64.29;100794.43;109334;1247;64175;-71
2023/06/24 18:06:35;;;;;;;10.80;3.90;;;;;;;28.64;65.21;100794.29;109252;1245;57669;-71
2023/06/24 18:09:04;;;;;;;9.20;4.10;;;;;;;28.45;65.78;100797.30;109336;1244;61504;-70
2023/06/24 18:11:32;;;;;;;7.60;4.00;;;;;;;28.26;65.74;100798.73;109318;1247;65584;-72
2023/06/24 18:14:01;;;;;;;8.80;3.80;;;;;;;28.05;67.00;100795.98;109267;1247;62042;-71
2023/06/24 18:16:30;;;;;;;9.40;4.50;;;;;;;27.83;68.48;100796.39;109243;1247;59289;-71
2023/06/24 18:18:59;;;;;;;8.30;4.00;;;;;;;27.66;70.85;100799.92;109285;1244;73043;-71
2023/06/24 18:21:27;;;;;;;10.30;4.10;;;;;;;27.55;70.25;100801.88;109321;1247;60903;-71
2023/06/24 18:23:57;;;;;;;12.60;4.00;;;;;;;27.42;70.82;100802.31;109391;1247;57652;-70
2023/06/24 18:26:26;;;;;;;8.50;4.00;;;;;;;27.29;70.50;100808.08;109299;1247;73796;-71
2023/06/24 18:28:54;;;;;;;7.40;3.70;;;;;;;27.13;72.23;100805.59;109371;1244;72827;-70